Time;durP1;ratioP1;P1;durP2;ratioP2;P2;SDS_P1;SDS_P2;PMS_P1;PMS_P2;Temp;Humidity;BMP_temperature;BMP_pressure;BME280_temperature;BME280_humidity;BME280_pressure;Samples;Min_cycle;Max_cycle;Signal;HPM_P1;HPM_P2
2022/09/18 00:00:54;;;;;;;16.70;3.88;;;;;;;;;;5074564;27;92864;-65
2022/09/18 00:03:20;;;;;;;13.73;2.70;;;;;;;;;;5080208;27;92652;-67
2022/09/18 00:05:47;;;;;;;12.38;3.05;;;;;;;;;;5097468;27;92433;-67
2022/09/18 00:08:13;;;;;;;13.27;2.40;;;;;;;;;;5101189;27;93168;-67
2022/09/18 00:10:41;;;;;;;14.57;3.00;;;;;;;;;;5091843;27;95442;-67
2022/09/18 00:13:07;;;;;;;17.17;2.78;;;;;;;;;;5078084;27;95225;-67
2022/09/18 00:15:34;;;;;;;9.50;2.55;;;;;;;;;;5077456;27;93102;-66
2022/09/18 00:18:01;;;;;;;16.80;2.90;;;;;;;;;;5076767;27;92919;-67
2022/09/18 00:20:27;;;;;;;15.68;3.05;;;;;;;;;;5077765;27;93020;-67
2022/09/18 00:22:53;;;;;;;17.25;3.20;;;;;;;;;;5078173;27;92551;-67
2022/09/18 00:25:20;;;;;;;13.15;2.53;;;;;;;;;;5076678;27;92829;-66
2022/09/18 00:27:46;;;;;;;9.32;1.95;;;;;;;;;;5085510;27;93938;-66
2022/09/18 00:30:13;;;;;;;7.43;2.28;;;;;;;;;;5098991;27;92386;-67
2022/09/18 00:32:39;;;;;;;16.70;2.72;;;;;;;;;;5097759;27;95280;-67
2022/09/18 00:35:06;;;;;;;13.43;2.35;;;;;;;;;;5094094;27;95177;-67
2022/09/18 00:37:32;;;;;;;15.52;2.55;;;;;;;;;;5099344;27;92435;-67
2022/09/18 00:39:59;;;;;;;12.70;2.33;;;;;;;;;;5096821;27;92997;-67
2022/09/18 00:42:25;;;;;;;10.45;2.65;;;;;;;;;;5098016;27;93257;-67
2022/09/18 00:44:52;;;;;;;18.00;2.38;;;;;;;;;;5078351;27;92693;-66
2022/09/18 00:47:23;;;;;;;10.10;2.15;;;;;;;;;;5079137;27;93925;-67
2022/09/18 00:49:58;;;;;;;13.05;2.28;;;;;;;;;;5101111;27;92909;-67
2022/09/18 00:52:26;;;;;;;13.68;2.55;;;;;;;;;;5080210;27;93423;-67
2022/09/18 00:54:59;;;;;;;8.65;2.00;;;;;;;;;;5097223;27;94339;-67
2022/09/18 00:57:25;;;;;;;;;;;;;;;;;;5098597;27;92401;-67
2022/09/18 00:59:53;;;;;;;14.80;1.90;;;;;;;;;;5095957;27;123067;-67
2022/09/18 01:02:19;;;;;;;10.82;2.28;;;;;;;;;;5069796;27;94043;-67
2022/09/18 01:04:47;;;;;;;11.85;2.63;;;;;;;;;;5092479;27;92404;-67
2022/09/18 01:07:24;;;;;;;9.35;2.20;;;;;;;;;;5097684;27;92944;-67
2022/09/18 01:09:57;;;;;;;22.42;2.58;;;;;;;;;;5076916;27;93209;-67
2022/09/18 01:12:26;;;;;;;8.07;2.15;;;;;;;;;;5097304;27;92409;-67
2022/09/18 01:15:17;;;;;;;10.40;2.13;;;;;;;;;;5076622;27;93251;-67
2022/09/18 01:17:45;;;;;;;7.22;1.83;;;;;;;;;;5077809;27;91777;-67
2022/09/18 01:20:35;;;;;;;9.68;2.00;;;;;;;;;;5075319;27;92357;-67
2022/09/18 01:23:20;;;;;;;13.13;2.47;;;;;;;;;;5070038;27;94101;-67
2022/09/18 01:25:52;;;;;;;12.07;1.90;;;;;;;;;;5076709;27;94849;-67
2022/09/18 01:28:25;;;;;;;11.90;2.35;;;;;;;;;;5078449;27;95586;-67
2022/09/18 01:30:55;;;;;;;12.07;2.00;;;;;;;;;;5078757;27;93200;-67
2022/09/18 01:33:27;;;;;;;13.63;2.38;;;;;;;;;;5097417;27;92459;-67
2022/09/18 01:35:57;;;;;;;9.05;2.50;;;;;;;;;;5061534;27;93061;-67
2022/09/18 01:38:28;;;;;;;6.07;1.50;;;;;;;;;;5076772;27;92480;-67
2022/09/18 01:40:57;;;;;;;4.95;2.25;;;;;;;;;;5058319;27;93016;-67
2022/09/18 01:43:25;;;;;;;13.18;2.53;;;;;;;;;;5076556;27;92751;-67
2022/09/18 01:45:53;;;;;;;10.48;2.85;;;;;;;;;;5057984;27;92490;-67
2022/09/18 01:48:37;;;;;;;7.88;2.63;;;;;;;;;;5092976;27;95276;-67
2022/09/18 01:51:19;;;;;;;6.78;2.03;;;;;;;;;;5054107;27;98177;-67
2022/09/18 01:53:53;;;;;;;18.65;2.83;;;;;;;;;;5058737;27;92718;-67
2022/09/18 01:56:25;;;;;;;13.88;3.20;;;;;;;;;;5091939;27;94373;-67
2022/09/18 01:58:54;;;;;;;15.60;2.33;;;;;;;;;;5095423;27;93288;-67
2022/09/18 02:01:24;;;;;;;13.00;2.58;;;;;;;;;;5092741;27;92919;-67
2022/09/18 02:03:54;;;;;;;14.02;2.25;;;;;;;;;;5082774;27;93088;-67
2022/09/18 02:06:40;;;;;;;9.35;2.35;;;;;;;;;;5064637;27;92487;-67
2022/09/18 02:09:09;;;;;;;7.28;1.70;;;;;;;;;;5058861;27;92561;-67
2022/09/18 02:11:38;;;;;;;14.40;2.05;;;;;;;;;;5094967;27;94028;-67
2022/09/18 02:14:13;;;;;;;10.07;2.50;;;;;;;;;;5078350;27;92517;-67
2022/09/18 02:17:01;;;;;;;11.32;1.98;;;;;;;;;;5095454;27;94802;-68
2022/09/18 02:19:34;;;;;;;16.00;3.00;;;;;;;;;;5078577;27;94674;-67
2022/09/18 02:22:03;;;;;;;11.00;2.17;;;;;;;;;;5081245;27;92501;-67
2022/09/18 02:24:32;;;;;;;11.88;2.45;;;;;;;;;;5095086;27;94436;-67
2022/09/18 02:27:00;;;;;;;8.70;2.00;;;;;;;;;;5077022;27;92526;-67
2022/09/18 02:29:30;;;;;;;11.35;2.13;;;;;;;;;;5077341;27;93755;-67
2022/09/18 02:31:58;;;;;;;15.80;2.25;;;;;;;;;;5076619;27;93695;-67
2022/09/18 02:34:24;;;;;;;13.65;2.50;;;;;;;;;;5096342;27;91817;-66
2022/09/18 02:37:01;;;;;;;12.45;2.60;;;;;;;;;;5057426;27;93411;-67
2022/09/18 02:39:37;;;;;;;10.18;2.50;;;;;;;;;;5056348;27;95158;-67
2022/09/18 02:42:07;;;;;;;15.65;2.42;;;;;;;;;;5058897;27;94898;-67
2022/09/18 02:44:45;;;;;;;8.57;2.05;;;;;;;;;;5057652;27;93725;-67
2022/09/18 02:47:20;;;;;;;8.98;1.80;;;;;;;;;;5091256;27;92527;-67
2022/09/18 02:49:46;;;;;;;15.02;2.17;;;;;;;;;;5056952;27;93066;-67
2022/09/18 02:52:12;;;;;;;12.30;1.90;;;;;;;;;;5056779;27;93369;-67
2022/09/18 02:54:42;;;;;;;14.65;2.83;;;;;;;;;;5057385;27;92558;-67
2022/09/18 02:57:13;;;;;;;16.60;3.08;;;;;;;;;;5057328;27;94778;-67
2022/09/18 02:59:45;;;;;;;11.48;2.90;;;;;;;;;;5057047;27;94756;-65
2022/09/18 03:02:13;;;;;;;10.40;1.95;;;;;;;;;;5091114;27;92631;-65
2022/09/18 03:04:40;;;;;;;12.95;2.50;;;;;;;;;;5066298;27;94081;-66
2022/09/18 03:07:13;;;;;;;12.43;1.92;;;;;;;;;;5054806;27;94855;-65
2022/09/18 03:09:41;;;;;;;11.07;1.90;;;;;;;;;;5056684;27;97320;-66
2022/09/18 03:12:08;;;;;;;11.35;3.00;;;;;;;;;;5074833;27;93196;-65
2022/09/18 03:14:38;;;;;;;9.38;1.90;;;;;;;;;;5056171;27;92442;-66
2022/09/18 03:17:04;;;;;;;8.05;2.13;;;;;;;;;;5075842;27;92765;-65
2022/09/18 03:19:31;;;;;;;6.22;1.70;;;;;;;;;;5071840;27;93298;-65
2022/09/18 03:21:58;;;;;;;9.25;2.90;;;;;;;;;;5055788;27;92480;-65
2022/09/18 03:24:27;;;;;;;12.40;2.20;;;;;;;;;;5077167;27;92875;-65
2022/09/18 03:26:55;;;;;;;8.93;2.20;;;;;;;;;;5080287;27;93370;-65
2022/09/18 03:29:23;;;;;;;16.02;2.05;;;;;;;;;;5076758;27;94086;-65
2022/09/18 03:31:51;;;;;;;16.17;2.80;;;;;;;;;;5075150;27;98114;-65
2022/09/18 03:34:17;;;;;;;10.00;2.05;;;;;;;;;;5094069;27;92504;-65
2022/09/18 03:36:45;;;;;;;6.68;1.92;;;;;;;;;;5079371;27;95329;-65
2022/09/18 03:39:13;;;;;;;12.80;2.53;;;;;;;;;;5081000;27;93210;-66
2022/09/18 03:41:42;;;;;;;6.70;1.48;;;;;;;;;;5080223;27;92710;-66
2022/09/18 03:44:09;;;;;;;9.20;2.05;;;;;;;;;;5081070;27;95525;-66
2022/09/18 03:46:39;;;;;;;7.75;2.33;;;;;;;;;;5080522;27;93443;-67
2022/09/18 03:49:07;;;;;;;10.35;2.10;;;;;;;;;;5083797;27;92110;-67
2022/09/18 03:51:36;;;;;;;12.15;2.30;;;;;;;;;;5059456;27;93313;-66
2022/09/18 03:54:05;;;;;;;9.50;1.60;;;;;;;;;;5061363;27;92505;-66
2022/09/18 03:57:03;;;;;;;6.95;1.75;;;;;;;;;;5040919;27;95167;-66
2022/09/18 03:59:48;;;;;;;10.82;1.75;;;;;;;;;;5059774;27;93297;-67
2022/09/18 04:02:33;;;;;;;10.02;1.70;;;;;;;;;;5075803;27;92395;-66
2022/09/18 04:05:18;;;;;;;8.52;1.95;;;;;;;;;;5098326;27;92462;-67
2022/09/18 04:08:07;;;;;;;10.38;1.95;;;;;;;;;;5047347;27;92905;-67
2022/09/18 04:10:52;;;;;;;7.20;1.90;;;;;;;;;;5074006;27;92640;-66
2022/09/18 04:13:19;;;;;;;9.45;1.80;;;;;;;;;;5062088;27;94300;-67
2022/09/18 04:15:49;;;;;;;11.68;1.92;;;;;;;;;;5094288;27;91717;-67
2022/09/18 04:18:16;;;;;;;7.78;1.52;;;;;;;;;;5077739;27;92950;-66
2022/09/18 04:20:42;;;;;;;11.18;2.08;;;;;;;;;;5058477;27;95271;-66
2022/09/18 04:23:14;;;;;;;3.70;1.45;;;;;;;;;;5059497;27;94910;-66
2022/09/18 04:25:40;;;;;;;11.57;1.95;;;;;;;;;;5076694;27;95282;-66
2022/09/18 04:28:07;;;;;;;7.38;2.13;;;;;;;;;;5078041;27;93082;-66
2022/09/18 04:30:38;;;;;;;13.27;3.25;;;;;;;;;;5058721;27;93206;-67
2022/09/18 04:33:06;;;;;;;5.82;1.83;;;;;;;;;;5059570;27;92928;-66
2022/09/18 04:35:33;;;;;;;7.88;2.08;;;;;;;;;;5080719;27;93437;-67
2022/09/18 04:37:59;;;;;;;6.70;1.90;;;;;;;;;;5077115;27;92880;-68
2022/09/18 04:40:25;;;;;;;10.73;1.77;;;;;;;;;;5078627;27;92494;-67
2022/09/18 04:42:52;;;;;;;12.88;2.25;;;;;;;;;;5074310;27;92571;-67
2022/09/18 04:45:18;;;;;;;10.80;1.80;;;;;;;;;;5078724;27;95048;-67
2022/09/18 04:47:45;;;;;;;10.27;1.75;;;;;;;;;;5076466;27;97389;-67
2022/09/18 04:50:12;;;;;;;7.90;1.83;;;;;;;;;;5079781;27;92526;-67
2022/09/18 04:52:59;;;;;;;2.85;1.20;;;;;;;;;;5097357;27;93568;-67
2022/09/18 04:55:26;;;;;;;7.90;2.25;;;;;;;;;;5082675;27;95271;-66
2022/09/18 04:57:55;;;;;;;5.03;1.58;;;;;;;;;;5079408;27;93009;-67
2022/09/18 05:00:21;;;;;;;5.93;1.42;;;;;;;;;;5096512;27;94066;-67
2022/09/18 05:02:48;;;;;;;7.55;1.58;;;;;;;;;;5079485;27;92762;-66
2022/09/18 05:05:19;;;;;;;6.50;1.67;;;;;;;;;;5060571;27;92927;-66
2022/09/18 05:07:45;;;;;;;11.60;1.58;;;;;;;;;;5075159;27;92264;-66
2022/09/18 05:10:14;;;;;;;5.55;1.40;;;;;;;;;;5070744;27;92519;-66
2022/09/18 05:12:42;;;;;;;5.68;1.95;;;;;;;;;;5057709;27;94904;-66
2022/09/18 05:15:10;;;;;;;7.18;1.40;;;;;;;;;;5058160;27;94100;-66
2022/09/18 05:17:39;;;;;;;4.82;1.40;;;;;;;;;;5062472;27;93025;-66
2022/09/18 05:20:08;;;;;;;9.90;1.50;;;;;;;;;;5075585;27;93179;-66
2022/09/18 05:22:42;;;;;;;5.97;1.38;;;;;;;;;;5092533;27;92423;-66
2022/09/18 05:25:10;;;;;;;4.45;1.45;;;;;;;;;;5058935;27;92787;-66
2022/09/18 05:27:38;;;;;;;3.47;0.95;;;;;;;;;;5057527;27;93166;-66
2022/09/18 05:30:06;;;;;;;5.88;1.45;;;;;;;;;;5059386;27;91723;-66
2022/09/18 05:32:54;;;;;;;7.75;1.98;;;;;;;;;;5058604;27;93229;-66
2022/09/18 05:35:25;;;;;;;10.00;1.42;;;;;;;;;;5060859;27;93184;-66
2022/09/18 05:37:52;;;;;;;5.93;1.63;;;;;;;;;;5056901;27;95966;-66
2022/09/18 05:40:19;;;;;;;13.10;1.50;;;;;;;;;;5078878;27;95458;-67
2022/09/18 05:42:46;;;;;;;9.95;1.75;;;;;;;;;;5056781;27;93420;-68
2022/09/18 05:45:14;;;;;;;8.93;1.33;;;;;;;;;;5062133;27;92961;-66
2022/09/18 05:47:40;;;;;;;2.95;1.15;;;;;;;;;;5058733;27;95096;-66
2022/09/18 05:50:08;;;;;;;11.20;1.45;;;;;;;;;;5061857;27;92595;-66
2022/09/18 05:52:34;;;;;;;5.70;1.50;;;;;;;;;;5059045;27;94835;-65
2022/09/18 05:55:03;;;;;;;7.00;1.60;;;;;;;;;;5059152;27;94052;-65
2022/09/18 05:57:29;;;;;;;9.60;1.98;;;;;;;;;;5058638;27;92927;-65
2022/09/18 05:59:56;;;;;;;10.70;1.55;;;;;;;;;;5057111;27;93884;-65
2022/09/18 06:02:24;;;;;;;5.63;1.63;;;;;;;;;;5063204;27;95631;-65
2022/09/18 06:05:09;;;;;;;7.30;1.70;;;;;;;;;;5068525;27;96188;-66
2022/09/18 06:07:36;;;;;;;9.82;1.63;;;;;;;;;;5057628;27;93223;-65
2022/09/18 06:10:03;;;;;;;6.97;1.35;;;;;;;;;;5060968;27;92614;-65
2022/09/18 06:12:30;;;;;;;4.85;1.33;;;;;;;;;;5069633;27;93059;-66
2022/09/18 06:14:56;;;;;;;2.47;1.02;;;;;;;;;;5077316;27;93432;-66
2022/09/18 06:17:23;;;;;;;6.38;2.08;;;;;;;;;;5057829;27;92623;-66
2022/09/18 06:19:53;;;;;;;6.47;1.30;;;;;;;;;;5057763;27;92969;-66
2022/09/18 06:22:19;;;;;;;9.73;1.30;;;;;;;;;;5057269;27;94749;-66
2022/09/18 06:24:45;;;;;;;6.80;1.27;;;;;;;;;;5078761;27;92363;-66
2022/09/18 06:27:18;;;;;;;;;;;;;;;;;;5056265;27;98089;-66
2022/09/18 06:29:44;;;;;;;9.18;1.70;;;;;;;;;;5057800;27;117186;-66
2022/09/18 06:32:14;;;;;;;5.72;1.98;;;;;;;;;;5055467;27;92864;-66
2022/09/18 06:34:41;;;;;;;6.80;1.73;;;;;;;;;;5057114;27;93288;-66
2022/09/18 06:37:10;;;;;;;6.72;1.50;;;;;;;;;;5057546;27;92605;-66
2022/09/18 06:39:39;;;;;;;5.90;1.50;;;;;;;;;;5072790;27;93563;-66
2022/09/18 06:42:07;;;;;;;6.00;1.58;;;;;;;;;;5056308;27;94217;-66
2022/09/18 06:44:54;;;;;;;7.72;1.92;;;;;;;;;;5035482;27;93019;-66
2022/09/18 06:47:21;;;;;;;11.18;1.88;;;;;;;;;;5060526;27;94915;-65
2022/09/18 06:49:47;;;;;;;6.82;1.70;;;;;;;;;;5070921;27;92424;-65
2022/09/18 06:52:15;;;;;;;7.22;1.83;;;;;;;;;;5074745;27;95357;-66
2022/09/18 06:54:42;;;;;;;9.27;2.05;;;;;;;;;;5057266;27;93463;-66
2022/09/18 06:57:08;;;;;;;6.78;1.55;;;;;;;;;;5075268;27;92458;-66
2022/09/18 06:59:36;;;;;;;5.97;1.90;;;;;;;;;;5057637;27;93309;-66
2022/09/18 07:02:09;;;;;;;11.45;1.92;;;;;;;;;;5056797;27;95288;-66
2022/09/18 07:04:56;;;;;;;5.63;1.55;;;;;;;;;;5062194;27;92847;-65
2022/09/18 07:07:23;;;;;;;5.40;1.35;;;;;;;;;;5075207;27;92855;-66
2022/09/18 07:09:50;;;;;;;8.18;1.40;;;;;;;;;;5065342;27;91748;-66
2022/09/18 07:12:22;;;;;;;5.20;1.40;;;;;;;;;;5056523;27;92553;-66
2022/09/18 07:14:52;;;;;;;3.90;1.25;;;;;;;;;;5056987;27;93346;-66
2022/09/18 07:17:20;;;;;;;6.68;1.95;;;;;;;;;;5055745;27;95489;-66
2022/09/18 07:19:52;;;;;;;8.20;1.45;;;;;;;;;;5087668;27;97405;-67
2022/09/18 07:22:22;;;;;;;6.65;1.90;;;;;;;;;;5056268;27;95572;-65
2022/09/18 07:24:50;;;;;;;10.02;2.38;;;;;;;;;;5069188;27;92872;-65
2022/09/18 07:27:17;;;;;;;5.65;2.00;;;;;;;;;;5071863;27;94159;-65
2022/09/18 07:29:44;;;;;;;7.20;1.90;;;;;;;;;;5059116;27;94675;-65
2022/09/18 07:32:13;;;;;;;10.77;2.58;;;;;;;;;;5057148;27;93077;-65
2022/09/18 07:34:42;;;;;;;5.10;1.48;;;;;;;;;;5063823;27;94934;-65
2022/09/18 07:37:11;;;;;;;10.27;1.38;;;;;;;;;;5057211;27;94652;-65
2022/09/18 07:39:40;;;;;;;6.50;1.60;;;;;;;;;;5055385;27;94699;-65
2022/09/18 07:42:26;;;;;;;4.50;1.65;;;;;;;;;;5073912;27;96336;-66
2022/09/18 07:44:53;;;;;;;7.47;1.55;;;;;;;;;;5055938;27;92576;-65
2022/09/18 07:47:19;;;;;;;9.35;1.77;;;;;;;;;;5074929;27;92745;-66
2022/09/18 07:49:46;;;;;;;9.18;1.73;;;;;;;;;;5059388;27;95082;-65
2022/09/18 07:52:13;;;;;;;6.03;1.50;;;;;;;;;;5072428;27;93960;-65
2022/09/18 07:54:44;;;;;;;6.20;1.70;;;;;;;;;;5060211;27;95310;-65
2022/09/18 07:57:27;;;;;;;9.07;1.88;;;;;;;;;;5064348;27;92829;-65
2022/09/18 08:00:09;;;;;;;3.83;1.08;;;;;;;;;;5070943;27;93080;-65
2022/09/18 08:02:40;;;;;;;10.18;1.42;;;;;;;;;;5075627;27;94426;-65
2022/09/18 08:05:08;;;;;;;5.18;1.90;;;;;;;;;;5061531;27;92639;-65
2022/09/18 08:07:43;;;;;;;9.82;1.63;;;;;;;;;;5055404;27;95075;-65
2022/09/18 08:10:30;;;;;;;5.25;1.63;;;;;;;;;;5025441;27;93113;-65
2022/09/18 08:13:17;;;;;;;5.57;1.63;;;;;;;;;;5055143;27;92590;-65
2022/09/18 08:16:04;;;;;;;8.57;1.90;;;;;;;;;;5042730;27;94450;-65
2022/09/18 08:19:06;;;;;;;5.23;1.53;;;;;;;;;;4989483;28;92698;-65
2022/09/18 08:21:43;;;;;;;8.32;1.60;;;;;;;;;;5049342;27;94762;-65
2022/09/18 08:24:13;;;;;;;6.30;1.83;;;;;;;;;;5065161;27;94976;-65
2022/09/18 08:26:39;;;;;;;10.93;1.58;;;;;;;;;;5058921;27;91764;-65
2022/09/18 08:29:05;;;;;;;6.32;1.90;;;;;;;;;;5077410;27;92504;-64
2022/09/18 08:31:34;;;;;;;6.75;1.70;;;;;;;;;;5071272;27;93280;-65
2022/09/18 08:34:03;;;;;;;6.38;1.88;;;;;;;;;;5059692;27;94913;-64
2022/09/18 08:36:30;;;;;;;8.02;2.00;;;;;;;;;;5068772;27;97467;-65
2022/09/18 08:39:13;;;;;;;7.28;1.67;;;;;;;;;;5071353;27;95148;-65
2022/09/18 08:42:15;;;;;;;9.95;1.92;;;;;;;;;;5090445;27;92612;-64
2022/09/18 08:44:51;;;;;;;5.78;1.80;;;;;;;;;;5062669;27;93189;-67
2022/09/18 08:47:21;;;;;;;5.28;1.83;;;;;;;;;;5060915;27;92536;-65
2022/09/18 08:49:59;;;;;;;7.18;1.98;;;;;;;;;;5060918;27;92918;-66
2022/09/18 08:52:31;;;;;;;6.35;1.50;;;;;;;;;;5077277;27;92321;-66
2022/09/18 08:55:13;;;;;;;4.20;1.40;;;;;;;;;;5062412;27;92565;-66
2022/09/18 08:57:53;;;;;;;5.32;1.23;;;;;;;;;;5075377;27;92945;-66
2022/09/18 09:00:31;;;;;;;4.82;1.65;;;;;;;;;;5079621;27;95352;-67
2022/09/18 09:03:22;;;;;;;9.48;2.00;;;;;;;;;;5066103;27;92498;-67
2022/09/18 09:05:51;;;;;;;15.70;2.28;;;;;;;;;;5058047;27;93344;-67
2022/09/18 09:08:41;;;;;;;5.40;1.65;;;;;;;;;;5069923;27;92537;-67
2022/09/18 09:11:09;;;;;;;6.10;1.67;;;;;;;;;;5058747;27;94550;-66
2022/09/18 09:13:46;;;;;;;5.60;1.45;;;;;;;;;;5076463;27;93240;-66
2022/09/18 09:16:15;;;;;;;6.95;2.00;;;;;;;;;;5058193;27;92426;-67
2022/09/18 09:18:50;;;;;;;7.35;1.30;;;;;;;;;;5058661;27;95606;-67
2022/09/18 09:21:17;;;;;;;4.82;1.40;;;;;;;;;;5059203;27;96135;-66
2022/09/18 09:23:50;;;;;;;4.75;1.20;;;;;;;;;;5069009;27;92524;-66
2022/09/18 09:26:33;;;;;;;6.03;1.23;;;;;;;;;;5054770;27;95500;-66
2022/09/18 09:29:19;;;;;;;6.63;1.50;;;;;;;;;;5057637;27;94111;-67
2022/09/18 09:32:24;;;;;;;17.00;1.83;;;;;;;;;;5077863;27;93805;-67
2022/09/18 09:35:20;;;;;;;7.90;1.92;;;;;;;;;;5067987;27;95381;-66
2022/09/18 09:37:59;;;;;;;;;;;;;;;;;;5060139;27;92582;-66
2022/09/18 09:40:34;;;;;;;6.38;1.65;;;;;;;;;;5059134;27;125373;-66
2022/09/18 09:43:13;;;;;;;6.57;1.60;;;;;;;;;;5058353;27;93218;-66
2022/09/18 09:45:50;;;;;;;6.55;1.52;;;;;;;;;;5059232;27;91900;-66
2022/09/18 09:48:22;;;;;;;5.10;1.20;;;;;;;;;;5076402;27;95069;-66
2022/09/18 09:50:55;;;;;;;7.50;2.30;;;;;;;;;;5074354;27;92479;-66
2022/09/18 09:53:23;;;;;;;2.90;1.30;;;;;;;;;;5057162;27;96296;-66
2022/09/18 09:56:07;;;;;;;1.38;1.00;;;;;;;;;;5061698;27;96019;-66
2022/09/18 09:58:43;;;;;;;3.28;1.30;;;;;;;;;;5057901;27;92433;-66
2022/09/18 10:01:17;;;;;;;3.63;1.38;;;;;;;;;;5068508;27;93677;-67
2022/09/18 10:03:57;;;;;;;3.55;1.20;;;;;;;;;;5060338;27;94163;-66
2022/09/18 10:06:44;;;;;;;6.18;1.75;;;;;;;;;;5061206;27;93443;-66
2022/09/18 10:09:22;;;;;;;4.00;1.55;;;;;;;;;;5068503;27;94490;-66
2022/09/18 10:11:55;;;;;;;7.03;1.48;;;;;;;;;;5060660;27;94648;-66
2022/09/18 10:14:26;;;;;;;6.95;1.60;;;;;;;;;;5058358;27;94460;-66
2022/09/18 10:16:53;;;;;;;7.15;0.90;;;;;;;;;;5056315;27;93404;-66
2022/09/18 10:19:21;;;;;;;8.80;1.83;;;;;;;;;;5056640;27;95672;-66
2022/09/18 10:21:51;;;;;;;5.78;1.45;;;;;;;;;;5060031;27;95334;-66
2022/09/18 10:24:26;;;;;;;8.23;2.30;;;;;;;;;;5073739;27;95903;-66
2022/09/18 10:27:02;;;;;;;6.82;2.00;;;;;;;;;;5078312;27;92458;-67
2022/09/18 10:29:29;;;;;;;4.05;1.95;;;;;;;;;;5064884;27;93021;-68
2022/09/18 10:32:03;;;;;;;13.80;1.63;;;;;;;;;;5056181;27;95811;-69
2022/09/18 10:34:48;;;;;;;10.07;2.05;;;;;;;;;;5080129;27;92491;-66
2022/09/18 10:37:27;;;;;;;11.05;1.80;;;;;;;;;;5074572;27;92411;-67
2022/09/18 10:40:01;;;;;;;7.03;2.33;;;;;;;;;;5057514;27;92461;-66
2022/09/18 10:42:32;;;;;;;6.05;1.25;;;;;;;;;;5059494;27;94926;-66
2022/09/18 10:45:24;;;;;;;9.13;2.20;;;;;;;;;;5054379;27;96492;-66
2022/09/18 10:48:13;;;;;;;2.90;1.20;;;;;;;;;;5073945;27;92471;-67
2022/09/18 10:50:58;;;;;;;6.97;1.60;;;;;;;;;;5084205;27;94362;-66
2022/09/18 10:53:37;;;;;;;8.32;1.48;;;;;;;;;;5069585;27;93625;-66
2022/09/18 10:56:19;;;;;;;10.05;1.50;;;;;;;;;;5056272;27;92707;-67
2022/09/18 10:58:51;;;;;;;4.00;1.35;;;;;;;;;;5063205;27;92963;-66
2022/09/18 11:01:17;;;;;;;10.55;2.30;;;;;;;;;;5066021;27;92494;-67
2022/09/18 11:04:03;;;;;;;3.33;1.80;;;;;;;;;;5057373;27;92966;-66
2022/09/18 11:06:34;;;;;;;6.18;1.63;;;;;;;;;;5056983;27;95768;-67
2022/09/18 11:09:17;;;;;;;7.10;1.85;;;;;;;;;;5066942;27;92619;-67
2022/09/18 11:11:45;;;;;;;9.02;1.30;;;;;;;;;;5074155;27;95164;-66
2022/09/18 11:14:21;;;;;;;8.48;2.15;;;;;;;;;;5071058;27;94549;-66
2022/09/18 11:17:31;;;;;;;5.05;1.20;;;;;;;;;;5073824;27;92507;-66
2022/09/18 11:20:00;;;;;;;6.22;1.27;;;;;;;;;;5067289;27;94747;-66
2022/09/18 11:22:44;;;;;;;8.05;1.48;;;;;;;;;;5057135;27;93765;-66
2022/09/18 11:25:21;;;;;;;3.88;1.50;;;;;;;;;;5059191;27;95421;-66
2022/09/18 11:27:52;;;;;;;3.78;1.50;;;;;;;;;;5057662;27;93234;-67
2022/09/18 11:30:22;;;;;;;4.38;1.40;;;;;;;;;;5057432;27;91732;-66
2022/09/18 11:32:52;;;;;;;4.75;1.13;;;;;;;;;;5063096;27;94327;-66
2022/09/18 11:35:19;;;;;;;3.28;1.27;;;;;;;;;;5057112;27;93440;-66
2022/09/18 11:37:52;;;;;;;5.20;1.60;;;;;;;;;;5057492;27;95426;-67
2022/09/18 11:40:18;;;;;;;4.15;1.23;;;;;;;;;;5056326;27;95208;-66
2022/09/18 11:42:46;;;;;;;3.17;1.00;;;;;;;;;;5073111;27;94997;-66
2022/09/18 11:45:16;;;;;;;3.55;1.23;;;;;;;;;;5056908;27;92866;-66
2022/09/18 11:47:46;;;;;;;7.05;1.33;;;;;;;;;;5062401;27;93184;-67
2022/09/18 11:50:15;;;;;;;7.93;1.42;;;;;;;;;;5074670;27;92629;-66
2022/09/18 11:52:47;;;;;;;8.25;1.40;;;;;;;;;;5056516;27;92992;-66
2022/09/18 11:55:20;;;;;;;5.68;1.80;;;;;;;;;;5069640;27;93097;-67
2022/09/18 11:57:49;;;;;;;6.63;1.85;;;;;;;;;;5082031;27;93291;-66
2022/09/18 12:00:21;;;;;;;8.93;1.50;;;;;;;;;;5064574;27;94186;-66
2022/09/18 12:03:04;;;;;;;4.07;1.35;;;;;;;;;;5057067;27;98095;-67
2022/09/18 12:05:51;;;;;;;5.28;1.35;;;;;;;;;;5063565;27;93251;-67
2022/09/18 12:08:28;;;;;;;9.32;1.30;;;;;;;;;;5061629;27;95515;-67
2022/09/18 12:11:05;;;;;;;6.68;1.38;;;;;;;;;;5072998;27;92552;-66
2022/09/18 12:13:45;;;;;;;3.53;1.27;;;;;;;;;;5070532;27;92829;-66
2022/09/18 12:16:16;;;;;;;6.72;1.27;;;;;;;;;;5068072;27;93853;-66
2022/09/18 12:18:55;;;;;;;10.93;1.30;;;;;;;;;;5059880;27;92469;-67
2022/09/18 12:21:33;;;;;;;2.70;1.00;;;;;;;;;;5079290;27;93451;-66
2022/09/18 12:23:59;;;;;;;2.05;1.05;;;;;;;;;;5062520;27;94912;-66
2022/09/18 12:31:39;;;;;;;3.00;1.02;;;;;;;;;;5125605;27;86481;-57
2022/09/18 12:34:18;;;;;;;3.08;1.38;;;;;;;;;;5103062;27;86874;-66
2022/09/18 12:58:42;;;;;;;42.92;20.45;;;;;;;;;;5028380;28;86481;-69
2022/09/18 13:01:25;;;;;;;29.90;13.02;;;;;;;;;;5015075;27;89088;-59
2022/09/18 13:03:53;;;;;;;30.90;15.00;;;;;;;;;;5021169;28;89510;-69
2022/09/18 13:06:31;;;;;;;34.40;15.63;;;;;;;;;;5014473;27;90923;-62
2022/09/18 13:09:01;;;;;;;23.50;11.38;;;;;;;;;;5022463;27;90380;-62
2022/09/18 13:11:42;;;;;;;21.23;11.02;;;;;;;;;;5031788;27;89374;-64
2022/09/18 13:14:12;;;;;;;27.85;13.35;;;;;;;;;;5032098;28;90017;-81
2022/09/18 13:16:38;;;;;;;41.78;19.77;;;;;;;;;;5033972;28;90148;-73
2022/09/18 13:19:14;;;;;;;27.90;14.60;;;;;;;;;;5023799;28;89515;-68
2022/09/18 13:21:41;;;;;;;30.05;14.90;;;;;;;;;;5017250;28;89808;-77
2022/09/18 13:24:12;;;;;;;31.10;16.00;;;;;;;;;;5019212;27;90364;-61
2022/09/18 13:26:38;;;;;;;38.65;18.52;;;;;;;;;;5014222;28;89021;-58
2022/09/18 13:29:23;;;;;;;51.67;25.25;;;;;;;;;;5012980;28;90224;-60
2022/09/18 13:31:52;;;;;;;81.82;40.85;;;;;;;;;;5012771;28;89245;-61
2022/09/18 13:34:21;;;;;;;85.53;44.05;;;;;;;;;;5012964;28;89018;-61
2022/09/18 13:36:48;;;;;;;121.53;60.92;;;;;;;;;;5016228;28;90153;-64
2022/09/18 13:39:16;;;;;;;94.55;49.33;;;;;;;;;;5012376;28;89544;-65
2022/09/18 13:41:44;;;;;;;78.00;41.78;;;;;;;;;;5016413;28;88951;-69
2022/09/18 13:44:21;;;;;;;73.90;37.45;;;;;;;;;;5014311;27;89272;-56
2022/09/18 13:46:51;;;;;;;88.03;43.30;;;;;;;;;;5012603;28;88916;-59
2022/09/18 13:49:27;;;;;;;59.92;33.60;;;;;;;;;;5028464;28;90298;-60
2022/09/18 13:51:54;;;;;;;69.95;33.55;;;;;;;;;;5026732;27;90652;-58
2022/09/18 13:54:22;;;;;;;59.08;30.80;;;;;;;;;;5019839;27;89466;-59
2022/09/18 13:57:13;;;;;;;57.08;28.85;;;;;;;;;;5019268;27;88984;-62
2022/09/18 13:59:50;;;;;;;50.28;26.42;;;;;;;;;;5012019;28;90432;-69
2022/09/18 14:02:30;;;;;;;50.97;26.30;;;;;;;;;;5012830;28;88865;-66
2022/09/18 14:05:32;;;;;;;45.15;22.33;;;;;;;;;;5016715;27;89772;-63
2022/09/18 14:08:06;;;;;;;57.70;22.08;;;;;;;;;;4980331;28;91456;-63
2022/09/18 14:10:35;;;;;;;41.05;21.88;;;;;;;;;;4995545;28;90051;-63
2022/09/18 14:13:07;;;;;;;41.38;20.58;;;;;;;;;;4999264;28;89508;-63
2022/09/18 14:15:34;;;;;;;37.65;19.45;;;;;;;;;;4998971;28;89401;-63
2022/09/18 14:18:15;;;;;;;42.08;19.52;;;;;;;;;;4998350;28;89956;-63
2022/09/18 14:20:45;;;;;;;30.33;17.85;;;;;;;;;;4999214;28;89174;-63
2022/09/18 14:23:30;;;;;;;30.45;17.88;;;;;;;;;;5002574;28;89066;-63
2022/09/18 14:25:56;;;;;;;34.70;17.65;;;;;;;;;;4998891;28;90171;-63
2022/09/18 14:28:22;;;;;;;31.40;17.15;;;;;;;;;;5002446;28;89484;-63
2022/09/18 14:31:07;;;;;;;33.42;15.77;;;;;;;;;;4999118;28;90673;-63
2022/09/18 14:33:34;;;;;;;27.08;15.45;;;;;;;;;;4999546;28;90726;-63
2022/09/18 14:36:04;;;;;;;29.20;14.32;;;;;;;;;;5006505;28;89091;-63
2022/09/18 14:38:30;;;;;;;29.13;14.45;;;;;;;;;;5014672;28;89965;-63
2022/09/18 14:41:04;;;;;;;30.40;14.80;;;;;;;;;;5000761;28;90465;-63
2022/09/18 14:43:31;;;;;;;27.35;13.70;;;;;;;;;;4999235;28;89089;-65
2022/09/18 14:45:57;;;;;;;24.38;12.82;;;;;;;;;;4999125;28;91133;-59
2022/09/18 14:48:34;;;;;;;29.08;12.88;;;;;;;;;;4998497;28;89303;-58
2022/09/18 14:51:01;;;;;;;21.15;11.80;;;;;;;;;;5002041;28;89049;-58
2022/09/18 14:53:28;;;;;;;15.73;11.75;;;;;;;;;;4999333;28;89510;-60
2022/09/18 14:56:02;;;;;;;27.60;12.18;;;;;;;;;;5015686;28;89093;-57
2022/09/18 14:58:33;;;;;;;22.50;11.63;;;;;;;;;;5017906;28;89915;-59
2022/09/18 15:01:00;;;;;;;23.20;11.55;;;;;;;;;;5018494;28;89400;-58
2022/09/18 15:03:28;;;;;;;25.40;10.45;;;;;;;;;;5013002;28;89001;-58
2022/09/18 15:05:55;;;;;;;26.35;9.95;;;;;;;;;;4997928;28;90046;-62
2022/09/18 15:08:23;;;;;;;15.23;9.27;;;;;;;;;;4999366;28;88506;-62
2022/09/18 15:10:52;;;;;;;19.13;8.98;;;;;;;;;;4999249;28;88326;-62
2022/09/18 15:13:20;;;;;;;20.80;9.82;;;;;;;;;;5005467;28;87441;-62
2022/09/18 15:15:55;;;;;;;17.27;8.35;;;;;;;;;;4999938;28;87159;-61
2022/09/18 15:18:23;;;;;;;14.13;8.75;;;;;;;;;;4999950;28;88646;-62
2022/09/18 15:20:50;;;;;;;21.75;8.23;;;;;;;;;;5007225;28;88566;-62
2022/09/18 15:23:24;;;;;;;12.52;8.07;;;;;;;;;;5014109;28;87643;-62
2022/09/18 15:25:51;;;;;;;13.85;7.63;;;;;;;;;;4998723;28;87693;-61
2022/09/18 15:28:19;;;;;;;29.55;6.47;;;;;;;;;;5006639;28;89162;-64
2022/09/18 15:30:46;;;;;;;23.33;6.55;;;;;;;;;;4999594;28;87340;-68
2022/09/18 15:33:18;;;;;;;13.07;4.78;;;;;;;;;;5002069;28;87992;-67